sensor_id;sensor_type;location;lat;lon;timestamp;P1;durP1;ratioP1;P2;durP2;ratioP2
17844;SDS011;9047;53.486;10.218;2023-04-30T00:00:31;15.73;;;4.40;;
17844;SDS011;9047;53.486;10.218;2023-04-30T00:02:58;13.70;;;5.05;;
17844;SDS011;9047;53.486;10.218;2023-04-30T00:05:30;14.30;;;4.45;;
17844;SDS011;9047;53.486;10.218;2023-04-30T00:07:58;8.50;;;3.35;;
17844;SDS011;9047;53.486;10.218;2023-04-30T00:10:28;22.40;;;5.78;;
17844;SDS011;9047;53.486;10.218;2023-04-30T00:12:55;12.23;;;4.20;;
17844;SDS011;9047;53.486;10.218;2023-04-30T00:15:23;14.15;;;4.93;;
17844;SDS011;9047;53.486;10.218;2023-04-30T00:17:50;14.20;;;3.67;;
17844;SDS011;9047;53.486;10.218;2023-04-30T00:20:19;13.32;;;4.97;;
17844;SDS011;9047;53.486;10.218;2023-04-30T00:22:51;14.70;;;5.00;;
17844;SDS011;9047;53.486;10.218;2023-04-30T00:25:19;12.30;;;4.05;;
17844;SDS011;9047;53.486;10.218;2023-04-30T00:27:48;11.35;;;3.80;;
17844;SDS011;9047;53.486;10.218;2023-04-30T00:30:15;18.92;;;6.32;;
17844;SDS011;9047;53.486;10.218;2023-04-30T00:32:46;12.63;;;4.03;;
17844;SDS011;9047;53.486;10.218;2023-04-30T00:35:13;18.45;;;7.65;;
17844;SDS011;9047;53.486;10.218;2023-04-30T00:37:41;10.95;;;4.13;;
17844;SDS011;9047;53.486;10.218;2023-04-30T00:40:14;11.35;;;4.47;;
17844;SDS011;9047;53.486;10.218;2023-04-30T00:42:42;16.85;;;6.13;;
17844;SDS011;9047;53.486;10.218;2023-04-30T00:45:09;15.77;;;4.90;;
17844;SDS011;9047;53.486;10.218;2023-04-30T00:47:36;13.25;;;4.03;;
17844;SDS011;9047;53.486;10.218;2023-04-30T00:50:06;11.45;;;3.55;;
17844;SDS011;9047;53.486;10.218;2023-04-30T00:52:39;17.52;;;5.47;;
17844;SDS011;9047;53.486;10.218;2023-04-30T00:55:07;12.23;;;5.35;;
17844;SDS011;9047;53.486;10.218;2023-04-30T00:57:38;12.35;;;3.97;;
17844;SDS011;9047;53.486;10.218;2023-04-30T01:00:06;12.80;;;4.15;;
17844;SDS011;9047;53.486;10.218;2023-04-30T01:02:35;12.27;;;4.80;;
17844;SDS011;9047;53.486;10.218;2023-04-30T01:05:03;14.75;;;4.00;;
17844;SDS011;9047;53.486;10.218;2023-04-30T01:07:31;12.45;;;4.20;;
17844;SDS011;9047;53.486;10.218;2023-04-30T01:10:03;12.13;;;4.25;;
17844;SDS011;9047;53.486;10.218;2023-04-30T01:12:34;12.98;;;4.40;;
17844;SDS011;9047;53.486;10.218;2023-04-30T01:15:11;15.90;;;4.60;;
17844;SDS011;9047;53.486;10.218;2023-04-30T01:17:47;13.95;;;4.22;;
17844;SDS011;9047;53.486;10.218;2023-04-30T01:20:25;14.95;;;3.70;;
17844;SDS011;9047;53.486;10.218;2023-04-30T01:22:57;10.90;;;3.67;;
17844;SDS011;9047;53.486;10.218;2023-04-30T01:25:43;8.50;;;3.53;;
17844;SDS011;9047;53.486;10.218;2023-04-30T01:28:20;13.70;;;4.15;;
17844;SDS011;9047;53.486;10.218;2023-04-30T01:30:48;13.63;;;3.88;;
17844;SDS011;9047;53.486;10.218;2023-04-30T01:33:16;12.20;;;4.13;;
17844;SDS011;9047;53.486;10.218;2023-04-30T01:39:02;15.07;;;4.15;;
17844;SDS011;9047;53.486;10.218;2023-04-30T01:41:36;14.63;;;4.13;;
17844;SDS011;9047;53.486;10.218;2023-04-30T01:44:15;10.93;;;4.32;;
17844;SDS011;9047;53.486;10.218;2023-04-30T01:46:53;10.93;;;4.00;;
17844;SDS011;9047;53.486;10.218;2023-04-30T01:49:29;12.05;;;4.07;;
17844;SDS011;9047;53.486;10.218;2023-04-30T01:52:08;9.98;;;3.97;;
17844;SDS011;9047;53.486;10.218;2023-04-30T01:54:54;11.07;;;4.03;;
17844;SDS011;9047;53.486;10.218;2023-04-30T01:57:27;14.13;;;4.55;;
17844;SDS011;9047;53.486;10.218;2023-04-30T01:59:59;15.75;;;3.80;;
17844;SDS011;9047;53.486;10.218;2023-04-30T02:02:28;12.48;;;4.13;;
17844;SDS011;9047;53.486;10.218;2023-04-30T02:04:55;11.85;;;4.20;;
17844;SDS011;9047;53.486;10.218;2023-04-30T02:07:27;11.13;;;3.72;;
17844;SDS011;9047;53.486;10.218;2023-04-30T02:10:05;13.23;;;4.10;;
17844;SDS011;9047;53.486;10.218;2023-04-30T02:12:33;12.82;;;4.22;;
17844;SDS011;9047;53.486;10.218;2023-04-30T02:15:03;13.77;;;4.20;;
17844;SDS011;9047;53.486;10.218;2023-04-30T02:17:31;11.95;;;4.22;;
17844;SDS011;9047;53.486;10.218;2023-04-30T02:19:59;13.15;;;4.32;;
17844;SDS011;9047;53.486;10.218;2023-04-30T02:22:26;11.93;;;4.32;;
17844;SDS011;9047;53.486;10.218;2023-04-30T02:24:54;11.10;;;4.50;;
17844;SDS011;9047;53.486;10.218;2023-04-30T02:27:23;10.25;;;4.30;;
17844;SDS011;9047;53.486;10.218;2023-04-30T02:29:51;14.70;;;4.43;;
17844;SDS011;9047;53.486;10.218;2023-04-30T02:32:20;13.93;;;4.15;;
17844;SDS011;9047;53.486;10.218;2023-04-30T02:34:48;13.95;;;4.72;;
17844;SDS011;9047;53.486;10.218;2023-04-30T02:37:16;13.02;;;4.32;;
17844;SDS011;9047;53.486;10.218;2023-04-30T02:39:43;12.75;;;4.30;;
17844;SDS011;9047;53.486;10.218;2023-04-30T02:42:11;13.32;;;4.75;;
17844;SDS011;9047;53.486;10.218;2023-04-30T02:44:38;13.48;;;4.45;;
17844;SDS011;9047;53.486;10.218;2023-04-30T02:47:07;14.30;;;4.57;;
17844;SDS011;9047;53.486;10.218;2023-04-30T02:49:36;14.48;;;5.05;;
17844;SDS011;9047;53.486;10.218;2023-04-30T02:52:04;12.05;;;4.60;;
17844;SDS011;9047;53.486;10.218;2023-04-30T02:54:33;14.18;;;4.80;;
17844;SDS011;9047;53.486;10.218;2023-04-30T02:57:00;14.80;;;4.22;;
17844;SDS011;9047;53.486;10.218;2023-04-30T02:59:27;11.75;;;4.45;;
17844;SDS011;9047;53.486;10.218;2023-04-30T03:01:56;17.75;;;4.45;;
17844;SDS011;9047;53.486;10.218;2023-04-30T03:04:24;14.02;;;4.50;;
17844;SDS011;9047;53.486;10.218;2023-04-30T03:06:53;12.93;;;4.97;;
17844;SDS011;9047;53.486;10.218;2023-04-30T03:09:24;11.30;;;4.70;;
17844;SDS011;9047;53.486;10.218;2023-04-30T03:11:51;9.82;;;4.15;;
17844;SDS011;9047;53.486;10.218;2023-04-30T03:14:18;10.07;;;4.78;;
17844;SDS011;9047;53.486;10.218;2023-04-30T03:16:45;14.70;;;5.18;;
17844;SDS011;9047;53.486;10.218;2023-04-30T03:19:13;12.20;;;4.80;;
17844;SDS011;9047;53.486;10.218;2023-04-30T03:21:40;10.10;;;4.82;;
17844;SDS011;9047;53.486;10.218;2023-04-30T03:24:09;14.88;;;4.70;;
17844;SDS011;9047;53.486;10.218;2023-04-30T03:26:36;18.85;;;4.80;;
17844;SDS011;9047;53.486;10.218;2023-04-30T03:29:03;10.30;;;4.63;;
17844;SDS011;9047;53.486;10.218;2023-04-30T03:31:30;15.48;;;5.05;;
17844;SDS011;9047;53.486;10.218;2023-04-30T03:33:58;12.48;;;4.75;;
17844;SDS011;9047;53.486;10.218;2023-04-30T03:36:25;16.30;;;5.03;;
17844;SDS011;9047;53.486;10.218;2023-04-30T03:38:53;11.35;;;4.80;;
17844;SDS011;9047;53.486;10.218;2023-04-30T03:41:22;12.05;;;4.30;;
17844;SDS011;9047;53.486;10.218;2023-04-30T03:43:49;13.40;;;4.78;;
17844;SDS011;9047;53.486;10.218;2023-04-30T03:46:16;12.25;;;5.20;;
17844;SDS011;9047;53.486;10.218;2023-04-30T03:48:44;15.35;;;5.30;;
17844;SDS011;9047;53.486;10.218;2023-04-30T03:51:11;13.05;;;5.05;;
17844;SDS011;9047;53.486;10.218;2023-04-30T03:53:39;16.60;;;5.78;;
17844;SDS011;9047;53.486;10.218;2023-04-30T03:56:07;10.93;;;4.95;;
17844;SDS011;9047;53.486;10.218;2023-04-30T03:58:38;15.43;;;4.88;;
17844;SDS011;9047;53.486;10.218;2023-04-30T04:01:05;13.77;;;4.38;;
17844;SDS011;9047;53.486;10.218;2023-04-30T04:03:33;10.82;;;5.00;;
17844;SDS011;9047;53.486;10.218;2023-04-30T04:06:00;14.25;;;4.43;;
17844;SDS011;9047;53.486;10.218;2023-04-30T04:08:29;9.50;;;4.68;;
17844;SDS011;9047;53.486;10.218;2023-04-30T04:10:56;12.15;;;4.65;;
17844;SDS011;9047;53.486;10.218;2023-04-30T04:13:23;14.13;;;4.97;;
17844;SDS011;9047;53.486;10.218;2023-04-30T04:15:52;12.70;;;4.88;;
17844;SDS011;9047;53.486;10.218;2023-04-30T04:18:19;13.32;;;5.40;;
17844;SDS011;9047;53.486;10.218;2023-04-30T04:20:46;11.27;;;5.03;;
17844;SDS011;9047;53.486;10.218;2023-04-30T04:23:14;15.00;;;5.45;;
17844;SDS011;9047;53.486;10.218;2023-04-30T04:25:41;16.02;;;4.70;;
17844;SDS011;9047;53.486;10.218;2023-04-30T04:28:15;11.80;;;4.50;;
17844;SDS011;9047;53.486;10.218;2023-04-30T04:30:43;13.05;;;5.10;;
17844;SDS011;9047;53.486;10.218;2023-04-30T04:33:15;12.75;;;5.43;;
17844;SDS011;9047;53.486;10.218;2023-04-30T04:35:44;14.73;;;5.40;;
17844;SDS011;9047;53.486;10.218;2023-04-30T04:38:11;10.43;;;4.97;;
17844;SDS011;9047;53.486;10.218;2023-04-30T04:40:39;19.63;;;5.88;;
17844;SDS011;9047;53.486;10.218;2023-04-30T04:43:07;10.18;;;4.80;;
17844;SDS011;9047;53.486;10.218;2023-04-30T04:45:35;10.77;;;4.90;;
17844;SDS011;9047;53.486;10.218;2023-04-30T04:48:04;15.07;;;5.05;;
17844;SDS011;9047;53.486;10.218;2023-04-30T04:50:33;18.95;;;5.82;;
17844;SDS011;9047;53.486;10.218;2023-04-30T04:53:00;13.82;;;6.07;;
17844;SDS011;9047;53.486;10.218;2023-04-30T04:55:28;13.60;;;5.70;;
17844;SDS011;9047;53.486;10.218;2023-04-30T04:57:55;16.63;;;6.25;;
17844;SDS011;9047;53.486;10.218;2023-04-30T05:00:22;13.05;;;5.85;;
17844;SDS011;9047;53.486;10.218;2023-04-30T05:02:50;13.40;;;6.00;;
17844;SDS011;9047;53.486;10.218;2023-04-30T05:05:17;15.77;;;6.22;;
17844;SDS011;9047;53.486;10.218;2023-04-30T05:07:50;14.77;;;5.35;;
17844;SDS011;9047;53.486;10.218;2023-04-30T05:10:19;13.05;;;5.45;;
17844;SDS011;9047;53.486;10.218;2023-04-30T05:12:46;14.48;;;5.95;;
17844;SDS011;9047;53.486;10.218;2023-04-30T05:15:13;12.48;;;5.57;;
17844;SDS011;9047;53.486;10.218;2023-04-30T05:17:41;15.38;;;6.40;;
17844;SDS011;9047;53.486;10.218;2023-04-30T05:20:11;13.38;;;6.20;;
17844;SDS011;9047;53.486;10.218;2023-04-30T05:22:39;14.85;;;5.38;;
17844;SDS011;9047;53.486;10.218;2023-04-30T05:25:08;19.48;;;6.70;;
17844;SDS011;9047;53.486;10.218;2023-04-30T05:27:35;16.02;;;5.97;;
17844;SDS011;9047;53.486;10.218;2023-04-30T05:30:02;10.82;;;5.45;;
17844;SDS011;9047;53.486;10.218;2023-04-30T05:32:33;13.77;;;5.32;;
17844;SDS011;9047;53.486;10.218;2023-04-30T05:35:01;13.88;;;5.75;;
17844;SDS011;9047;53.486;10.218;2023-04-30T05:37:30;11.68;;;5.85;;
17844;SDS011;9047;53.486;10.218;2023-04-30T05:39:57;15.30;;;6.10;;
17844;SDS011;9047;53.486;10.218;2023-04-30T05:42:25;18.85;;;6.18;;
17844;SDS011;9047;53.486;10.218;2023-04-30T05:44:53;11.65;;;5.97;;
17844;SDS011;9047;53.486;10.218;2023-04-30T05:47:20;13.25;;;5.30;;
17844;SDS011;9047;53.486;10.218;2023-04-30T05:49:49;13.70;;;5.40;;
17844;SDS011;9047;53.486;10.218;2023-04-30T05:52:16;11.73;;;5.55;;
17844;SDS011;9047;53.486;10.218;2023-04-30T05:54:43;12.57;;;5.97;;
17844;SDS011;9047;53.486;10.218;2023-04-30T05:57:12;13.05;;;5.47;;
17844;SDS011;9047;53.486;10.218;2023-04-30T05:59:40;14.55;;;4.90;;
17844;SDS011;9047;53.486;10.218;2023-04-30T06:02:07;13.75;;;4.78;;
17844;SDS011;9047;53.486;10.218;2023-04-30T06:04:40;13.60;;;5.10;;
17844;SDS011;9047;53.486;10.218;2023-04-30T06:07:09;16.55;;;5.13;;
17844;SDS011;9047;53.486;10.218;2023-04-30T06:09:37;10.13;;;4.00;;
17844;SDS011;9047;53.486;10.218;2023-04-30T06:12:04;10.63;;;3.80;;
17844;SDS011;9047;53.486;10.218;2023-04-30T06:14:31;14.23;;;3.90;;
17844;SDS011;9047;53.486;10.218;2023-04-30T06:17:00;9.95;;;3.50;;
17844;SDS011;9047;53.486;10.218;2023-04-30T06:19:31;10.68;;;3.38;;
17844;SDS011;9047;53.486;10.218;2023-04-30T06:21:57;9.07;;;3.50;;
17844;SDS011;9047;53.486;10.218;2023-04-30T06:24:25;10.32;;;3.42;;
17844;SDS011;9047;53.486;10.218;2023-04-30T06:26:54;8.85;;;3.40;;
17844;SDS011;9047;53.486;10.218;2023-04-30T06:29:21;10.90;;;3.55;;
17844;SDS011;9047;53.486;10.218;2023-04-30T06:31:49;10.23;;;3.30;;
17844;SDS011;9047;53.486;10.218;2023-04-30T06:34:19;8.70;;;3.30;;
17844;SDS011;9047;53.486;10.218;2023-04-30T06:36:50;10.48;;;2.63;;
17844;SDS011;9047;53.486;10.218;2023-04-30T06:39:20;5.90;;;2.45;;
17844;SDS011;9047;53.486;10.218;2023-04-30T06:41:47;8.07;;;2.55;;
17844;SDS011;9047;53.486;10.218;2023-04-30T06:44:14;6.78;;;2.30;;
17844;SDS011;9047;53.486;10.218;2023-04-30T06:46:44;7.70;;;2.40;;
17844;SDS011;9047;53.486;10.218;2023-04-30T06:49:12;8.57;;;2.17;;
17844;SDS011;9047;53.486;10.218;2023-04-30T06:51:41;8.07;;;2.50;;
17844;SDS011;9047;53.486;10.218;2023-04-30T06:54:08;7.43;;;2.35;;
17844;SDS011;9047;53.486;10.218;2023-04-30T06:56:35;7.30;;;2.30;;
17844;SDS011;9047;53.486;10.218;2023-04-30T06:59:02;8.00;;;2.30;;
17844;SDS011;9047;53.486;10.218;2023-04-30T07:01:30;8.90;;;2.60;;
17844;SDS011;9047;53.486;10.218;2023-04-30T07:03:58;7.40;;;2.40;;
17844;SDS011;9047;53.486;10.218;2023-04-30T07:06:26;6.28;;;2.28;;
17844;SDS011;9047;53.486;10.218;2023-04-30T07:08:55;7.60;;;3.03;;
17844;SDS011;9047;53.486;10.218;2023-04-30T07:11:22;9.02;;;2.22;;
17844;SDS011;9047;53.486;10.218;2023-04-30T07:13:49;5.22;;;2.03;;
17844;SDS011;9047;53.486;10.218;2023-04-30T07:16:19;5.20;;;2.42;;
17844;SDS011;9047;53.486;10.218;2023-04-30T07:18:46;7.78;;;2.70;;
17844;SDS011;9047;53.486;10.218;2023-04-30T07:21:14;6.15;;;2.20;;
17844;SDS011;9047;53.486;10.218;2023-04-30T07:23:42;5.70;;;2.25;;
17844;SDS011;9047;53.486;10.218;2023-04-30T07:26:11;6.75;;;2.17;;
17844;SDS011;9047;53.486;10.218;2023-04-30T07:28:38;6.50;;;2.10;;
17844;SDS011;9047;53.486;10.218;2023-04-30T07:31:06;6.07;;;2.25;;
17844;SDS011;9047;53.486;10.218;2023-04-30T07:33:34;8.48;;;2.40;;
17844;SDS011;9047;53.486;10.218;2023-04-30T07:36:05;8.25;;;2.38;;
17844;SDS011;9047;53.486;10.218;2023-04-30T07:38:32;8.48;;;2.50;;
17844;SDS011;9047;53.486;10.218;2023-04-30T07:41:00;6.28;;;2.13;;
17844;SDS011;9047;53.486;10.218;2023-04-30T07:46:33;9.55;;;2.53;;
17844;SDS011;9047;53.486;10.218;2023-04-30T07:49:00;5.53;;;2.22;;
17844;SDS011;9047;53.486;10.218;2023-04-30T07:51:28;6.10;;;2.30;;
17844;SDS011;9047;53.486;10.218;2023-04-30T07:53:57;6.05;;;2.30;;
17844;SDS011;9047;53.486;10.218;2023-04-30T07:56:29;9.20;;;2.13;;
17844;SDS011;9047;53.486;10.218;2023-04-30T07:58:57;7.43;;;2.30;;
17844;SDS011;9047;53.486;10.218;2023-04-30T08:01:24;6.35;;;2.28;;
17844;SDS011;9047;53.486;10.218;2023-04-30T08:03:53;8.68;;;2.42;;
17844;SDS011;9047;53.486;10.218;2023-04-30T08:06:20;6.13;;;2.35;;
17844;SDS011;9047;53.486;10.218;2023-04-30T08:08:48;7.25;;;2.30;;
17844;SDS011;9047;53.486;10.218;2023-04-30T08:11:15;5.47;;;2.33;;
17844;SDS011;9047;53.486;10.218;2023-04-30T08:13:42;6.90;;;2.33;;
17844;SDS011;9047;53.486;10.218;2023-04-30T08:16:09;8.60;;;2.53;;
17844;SDS011;9047;53.486;10.218;2023-04-30T08:18:36;7.55;;;2.40;;
17844;SDS011;9047;53.486;10.218;2023-04-30T08:21:09;7.00;;;2.70;;
17844;SDS011;9047;53.486;10.218;2023-04-30T08:23:40;6.60;;;2.53;;
17844;SDS011;9047;53.486;10.218;2023-04-30T08:26:11;9.60;;;3.15;;
17844;SDS011;9047;53.486;10.218;2023-04-30T08:28:39;9.27;;;2.70;;
17844;SDS011;9047;53.486;10.218;2023-04-30T08:31:07;7.32;;;2.83;;
17844;SDS011;9047;53.486;10.218;2023-04-30T08:33:35;6.82;;;2.78;;
17844;SDS011;9047;53.486;10.218;2023-04-30T08:36:05;5.80;;;2.20;;
17844;SDS011;9047;53.486;10.218;2023-04-30T08:38:35;7.13;;;2.67;;
17844;SDS011;9047;53.486;10.218;2023-04-30T08:41:07;5.60;;;2.60;;
17844;SDS011;9047;53.486;10.218;2023-04-30T08:43:36;7.45;;;3.00;;
17844;SDS011;9047;53.486;10.218;2023-04-30T08:46:04;8.23;;;2.67;;
17844;SDS011;9047;53.486;10.218;2023-04-30T08:48:31;6.13;;;2.75;;
17844;SDS011;9047;53.486;10.218;2023-04-30T08:50:59;5.53;;;2.35;;
17844;SDS011;9047;53.486;10.218;2023-04-30T08:53:30;6.68;;;2.45;;
17844;SDS011;9047;53.486;10.218;2023-04-30T08:56:03;5.68;;;2.30;;
17844;SDS011;9047;53.486;10.218;2023-04-30T08:58:30;7.82;;;2.50;;
17844;SDS011;9047;53.486;10.218;2023-04-30T09:00:58;6.28;;;2.50;;
17844;SDS011;9047;53.486;10.218;2023-04-30T09:03:26;5.88;;;2.38;;
17844;SDS011;9047;53.486;10.218;2023-04-30T09:05:54;6.57;;;2.28;;
17844;SDS011;9047;53.486;10.218;2023-04-30T09:11:23;5.93;;;2.10;;
17844;SDS011;9047;53.486;10.218;2023-04-30T09:13:52;6.68;;;2.75;;
17844;SDS011;9047;53.486;10.218;2023-04-30T09:16:21;6.80;;;2.70;;
17844;SDS011;9047;53.486;10.218;2023-04-30T09:18:49;7.35;;;2.58;;
17844;SDS011;9047;53.486;10.218;2023-04-30T09:21:16;6.88;;;2.40;;
17844;SDS011;9047;53.486;10.218;2023-04-30T09:23:57;7.57;;;2.40;;
17844;SDS011;9047;53.486;10.218;2023-04-30T09:26:26;5.03;;;2.35;;
17844;SDS011;9047;53.486;10.218;2023-04-30T09:28:57;5.88;;;2.67;;
17844;SDS011;9047;53.486;10.218;2023-04-30T09:31:33;6.07;;;2.72;;
17844;SDS011;9047;53.486;10.218;2023-04-30T09:34:00;7.40;;;2.47;;
17844;SDS011;9047;53.486;10.218;2023-04-30T09:36:28;8.48;;;2.50;;
17844;SDS011;9047;53.486;10.218;2023-04-30T09:39:05;8.65;;;2.85;;
17844;SDS011;9047;53.486;10.218;2023-04-30T09:41:36;8.15;;;2.65;;
17844;SDS011;9047;53.486;10.218;2023-04-30T09:44:08;9.80;;;2.78;;
17844;SDS011;9047;53.486;10.218;2023-04-30T09:46:56;8.60;;;2.75;;
17844;SDS011;9047;53.486;10.218;2023-04-30T09:49:39;7.82;;;2.95;;
17844;SDS011;9047;53.486;10.218;2023-04-30T09:52:10;6.45;;;2.75;;
17844;SDS011;9047;53.486;10.218;2023-04-30T09:54:43;11.85;;;2.97;;
17844;SDS011;9047;53.486;10.218;2023-04-30T09:57:17;5.88;;;2.42;;
17844;SDS011;9047;53.486;10.218;2023-04-30T09:59:54;4.57;;;2.50;;
17844;SDS011;9047;53.486;10.218;2023-04-30T10:02:34;6.82;;;2.60;;
17844;SDS011;9047;53.486;10.218;2023-04-30T10:05:04;5.53;;;2.40;;
17844;SDS011;9047;53.486;10.218;2023-04-30T10:07:33;6.47;;;2.30;;
17844;SDS011;9047;53.486;10.218;2023-04-30T10:10:14;6.95;;;2.40;;
17844;SDS011;9047;53.486;10.218;2023-04-30T10:12:46;5.93;;;2.53;;
17844;SDS011;9047;53.486;10.218;2023-04-30T10:15:30;7.40;;;2.30;;
17844;SDS011;9047;53.486;10.218;2023-04-30T10:18:08;7.97;;;2.47;;
17844;SDS011;9047;53.486;10.218;2023-04-30T10:20:40;5.30;;;2.58;;
17844;SDS011;9047;53.486;10.218;2023-04-30T10:23:08;5.35;;;2.50;;
17844;SDS011;9047;53.486;10.218;2023-04-30T10:25:39;6.57;;;2.55;;
17844;SDS011;9047;53.486;10.218;2023-04-30T10:28:07;8.00;;;2.50;;
17844;SDS011;9047;53.486;10.218;2023-04-30T10:30:36;5.93;;;2.20;;
17844;SDS011;9047;53.486;10.218;2023-04-30T10:33:05;5.15;;;2.53;;
17844;SDS011;9047;53.486;10.218;2023-04-30T10:35:52;5.70;;;2.53;;
17844;SDS011;9047;53.486;10.218;2023-04-30T10:38:26;7.88;;;2.65;;
17844;SDS011;9047;53.486;10.218;2023-04-30T10:41:01;6.45;;;2.60;;
17844;SDS011;9047;53.486;10.218;2023-04-30T10:43:34;6.65;;;2.42;;
17844;SDS011;9047;53.486;10.218;2023-04-30T10:46:04;7.35;;;2.47;;
17844;SDS011;9047;53.486;10.218;2023-04-30T10:48:34;6.35;;;2.92;;
17844;SDS011;9047;53.486;10.218;2023-04-30T10:51:08;6.10;;;2.25;;
17844;SDS011;9047;53.486;10.218;2023-04-30T10:53:37;9.65;;;2.70;;
17844;SDS011;9047;53.486;10.218;2023-04-30T10:56:14;7.00;;;2.60;;
17844;SDS011;9047;53.486;10.218;2023-04-30T10:59:03;7.13;;;2.47;;
17844;SDS011;9047;53.486;10.218;2023-04-30T11:02:00;7.47;;;2.78;;
17844;SDS011;9047;53.486;10.218;2023-04-30T11:04:34;7.50;;;2.72;;
17844;SDS011;9047;53.486;10.218;2023-04-30T11:07:35;7.55;;;2.92;;
17844;SDS011;9047;53.486;10.218;2023-04-30T11:10:03;7.35;;;2.80;;
17844;SDS011;9047;53.486;10.218;2023-04-30T11:12:38;5.78;;;2.60;;
17844;SDS011;9047;53.486;10.218;2023-04-30T11:15:11;6.20;;;2.25;;
17844;SDS011;9047;53.486;10.218;2023-04-30T11:17:49;8.38;;;2.70;;
17844;SDS011;9047;53.486;10.218;2023-04-30T11:20:28;7.20;;;2.65;;
17844;SDS011;9047;53.486;10.218;2023-04-30T11:23:09;7.75;;;2.58;;
17844;SDS011;9047;53.486;10.218;2023-04-30T11:25:39;6.28;;;2.20;;
17844;SDS011;9047;53.486;10.218;2023-04-30T11:28:15;5.35;;;2.40;;
17844;SDS011;9047;53.486;10.218;2023-04-30T11:30:50;6.38;;;2.60;;
17844;SDS011;9047;53.486;10.218;2023-04-30T11:33:19;5.55;;;2.38;;
17844;SDS011;9047;53.486;10.218;2023-04-30T11:36:01;5.25;;;2.15;;
17844;SDS011;9047;53.486;10.218;2023-04-30T11:38:33;7.05;;;2.63;;
17844;SDS011;9047;53.486;10.218;2023-04-30T11:41:01;7.97;;;2.60;;
17844;SDS011;9047;53.486;10.218;2023-04-30T11:43:31;8.77;;;2.67;;
17844;SDS011;9047;53.486;10.218;2023-04-30T11:46:02;6.47;;;2.47;;
17844;SDS011;9047;53.486;10.218;2023-04-30T11:48:32;5.03;;;2.28;;
17844;SDS011;9047;53.486;10.218;2023-04-30T11:51:02;8.43;;;2.60;;
17844;SDS011;9047;53.486;10.218;2023-04-30T11:53:38;7.22;;;2.40;;
17844;SDS011;9047;53.486;10.218;2023-04-30T11:56:06;5.70;;;2.40;;
17844;SDS011;9047;53.486;10.218;2023-04-30T11:58:37;7.00;;;2.58;;
17844;SDS011;9047;53.486;10.218;2023-04-30T12:01:05;7.68;;;2.60;;
17844;SDS011;9047;53.486;10.218;2023-04-30T12:03:39;7.00;;;2.80;;
17844;SDS011;9047;53.486;10.218;2023-04-30T12:06:08;4.47;;;2.30;;
17844;SDS011;9047;53.486;10.218;2023-04-30T12:08:36;8.00;;;2.53;;
17844;SDS011;9047;53.486;10.218;2023-04-30T12:11:03;5.90;;;2.45;;
17844;SDS011;9047;53.486;10.218;2023-04-30T12:13:32;6.35;;;2.60;;
17844;SDS011;9047;53.486;10.218;2023-04-30T12:16:05;6.65;;;2.40;;
17844;SDS011;9047;53.486;10.218;2023-04-30T12:18:33;6.68;;;2.65;;
17844;SDS011;9047;53.486;10.218;2023-04-30T12:21:02;4.80;;;2.30;;
17844;SDS011;9047;53.486;10.218;2023-04-30T12:23:29;5.57;;;2.47;;
17844;SDS011;9047;53.486;10.218;2023-04-30T12:25:59;6.65;;;2.50;;
17844;SDS011;9047;53.486;10.218;2023-04-30T12:28:28;6.47;;;2.78;;
17844;SDS011;9047;53.486;10.218;2023-04-30T12:30:56;4.78;;;2.38;;
17844;SDS011;9047;53.486;10.218;2023-04-30T12:33:32;5.72;;;2.60;;
17844;SDS011;9047;53.486;10.218;2023-04-30T12:36:01;4.75;;;2.42;;
17844;SDS011;9047;53.486;10.218;2023-04-30T12:38:29;4.93;;;2.40;;
17844;SDS011;9047;53.486;10.218;2023-04-30T12:40:56;5.95;;;2.42;;
17844;SDS011;9047;53.486;10.218;2023-04-30T12:43:24;7.95;;;2.55;;
17844;SDS011;9047;53.486;10.218;2023-04-30T12:45:55;6.53;;;2.50;;
17844;SDS011;9047;53.486;10.218;2023-04-30T12:48:23;6.82;;;2.80;;
17844;SDS011;9047;53.486;10.218;2023-04-30T12:51:00;6.22;;;2.95;;
17844;SDS011;9047;53.486;10.218;2023-04-30T12:53:29;5.88;;;2.70;;
17844;SDS011;9047;53.486;10.218;2023-04-30T12:56:09;7.60;;;2.45;;
17844;SDS011;9047;53.486;10.218;2023-04-30T12:58:44;9.35;;;2.58;;
17844;SDS011;9047;53.486;10.218;2023-04-30T13:01:15;6.38;;;2.40;;
17844;SDS011;9047;53.486;10.218;2023-04-30T13:03:44;8.38;;;2.58;;
17844;SDS011;9047;53.486;10.218;2023-04-30T13:06:13;3.67;;;2.40;;
17844;SDS011;9047;53.486;10.218;2023-04-30T13:08:41;5.47;;;2.80;;
17844;SDS011;9047;53.486;10.218;2023-04-30T13:11:10;6.25;;;2.40;;
17844;SDS011;9047;53.486;10.218;2023-04-30T13:13:41;5.63;;;2.60;;
17844;SDS011;9047;53.486;10.218;2023-04-30T13:16:09;5.40;;;2.45;;
17844;SDS011;9047;53.486;10.218;2023-04-30T13:18:38;5.80;;;2.20;;
17844;SDS011;9047;53.486;10.218;2023-04-30T13:21:05;6.35;;;2.55;;
17844;SDS011;9047;53.486;10.218;2023-04-30T13:23:44;5.45;;;2.40;;
17844;SDS011;9047;53.486;10.218;2023-04-30T13:26:17;6.22;;;2.50;;
17844;SDS011;9047;53.486;10.218;2023-04-30T13:28:45;5.43;;;2.47;;
17844;SDS011;9047;53.486;10.218;2023-04-30T13:31:12;5.97;;;2.58;;
17844;SDS011;9047;53.486;10.218;2023-04-30T13:33:43;5.22;;;2.45;;
17844;SDS011;9047;53.486;10.218;2023-04-30T13:36:14;3.90;;;2.53;;
17844;SDS011;9047;53.486;10.218;2023-04-30T13:38:45;4.20;;;2.53;;
17844;SDS011;9047;53.486;10.218;2023-04-30T13:41:13;5.13;;;2.47;;
17844;SDS011;9047;53.486;10.218;2023-04-30T13:43:43;4.95;;;2.30;;
17844;SDS011;9047;53.486;10.218;2023-04-30T13:46:11;6.28;;;2.45;;
17844;SDS011;9047;53.486;10.218;2023-04-30T13:48:40;5.78;;;2.58;;
17844;SDS011;9047;53.486;10.218;2023-04-30T13:51:15;6.50;;;2.55;;
17844;SDS011;9047;53.486;10.218;2023-04-30T13:53:47;4.30;;;2.38;;
17844;SDS011;9047;53.486;10.218;2023-04-30T13:56:14;6.93;;;2.53;;
17844;SDS011;9047;53.486;10.218;2023-04-30T13:58:41;5.40;;;2.45;;
17844;SDS011;9047;53.486;10.218;2023-04-30T14:01:27;8.00;;;2.38;;
17844;SDS011;9047;53.486;10.218;2023-04-30T14:03:56;5.43;;;2.13;;
17844;SDS011;9047;53.486;10.218;2023-04-30T14:06:32;5.88;;;2.30;;
17844;SDS011;9047;53.486;10.218;2023-04-30T14:09:02;8.23;;;2.50;;
17844;SDS011;9047;53.486;10.218;2023-04-30T14:11:29;6.18;;;2.50;;
17844;SDS011;9047;53.486;10.218;2023-04-30T14:13:57;6.55;;;2.60;;
17844;SDS011;9047;53.486;10.218;2023-04-30T14:16:24;6.25;;;2.60;;
17844;SDS011;9047;53.486;10.218;2023-04-30T14:18:53;5.20;;;2.50;;
17844;SDS011;9047;53.486;10.218;2023-04-30T14:21:21;7.03;;;2.45;;
17844;SDS011;9047;53.486;10.218;2023-04-30T14:23:49;4.97;;;2.50;;
17844;SDS011;9047;53.486;10.218;2023-04-30T14:26:20;5.72;;;2.33;;
17844;SDS011;9047;53.486;10.218;2023-04-30T14:28:49;6.20;;;2.53;;
17844;SDS011;9047;53.486;10.218;2023-04-30T14:31:16;8.95;;;2.85;;
17844;SDS011;9047;53.486;10.218;2023-04-30T14:33:43;7.28;;;2.60;;
17844;SDS011;9047;53.486;10.218;2023-04-30T14:36:11;5.97;;;2.42;;
17844;SDS011;9047;53.486;10.218;2023-04-30T14:38:38;5.60;;;2.50;;
17844;SDS011;9047;53.486;10.218;2023-04-30T14:41:05;7.85;;;2.38;;
17844;SDS011;9047;53.486;10.218;2023-04-30T14:43:36;6.85;;;2.83;;
17844;SDS011;9047;53.486;10.218;2023-04-30T14:46:04;7.30;;;3.10;;
17844;SDS011;9047;53.486;10.218;2023-04-30T14:48:36;7.32;;;2.45;;
17844;SDS011;9047;53.486;10.218;2023-04-30T14:51:04;6.28;;;2.90;;
17844;SDS011;9047;53.486;10.218;2023-04-30T14:53:32;11.65;;;3.10;;
17844;SDS011;9047;53.486;10.218;2023-04-30T14:56:00;8.48;;;2.70;;
17844;SDS011;9047;53.486;10.218;2023-04-30T14:58:31;6.15;;;2.78;;
17844;SDS011;9047;53.486;10.218;2023-04-30T15:00:59;7.22;;;2.80;;
17844;SDS011;9047;53.486;10.218;2023-04-30T15:03:26;8.60;;;2.88;;
17844;SDS011;9047;53.486;10.218;2023-04-30T15:05:53;6.93;;;2.67;;
17844;SDS011;9047;53.486;10.218;2023-04-30T15:08:22;8.02;;;2.88;;